sensor_id;sensor_type;location;lat;lon;timestamp;pressure;altitude;pressure_sealevel;temperature;humidity
25650;BME280;13505;45.196;5.696;2023-07-13T04:32:45;99317.47;;;21.94;68.76
25650;BME280;13505;45.196;5.696;2023-07-13T04:37:36;99325.66;;;21.72;67.22
25650;BME280;13505;45.196;5.696;2023-07-13T04:42:26;99328.28;;;21.63;64.84
25650;BME280;13505;45.196;5.696;2023-07-13T04:47:17;99335.13;;;21.67;65.91
25650;BME280;13505;45.196;5.696;2023-07-13T04:52:07;99336.75;;;21.58;66.25
25650;BME280;13505;45.196;5.696;2023-07-13T04:56:58;99348.34;;;21.58;66.29
25650;BME280;13505;45.196;5.696;2023-07-13T05:01:48;99351.72;;;21.60;65.70
25650;BME280;13505;45.196;5.696;2023-07-13T05:06:38;99354.81;;;21.56;66.77
25650;BME280;13505;45.196;5.696;2023-07-13T05:11:29;99355.59;;;21.68;65.98
25650;BME280;13505;45.196;5.696;2023-07-13T05:16:19;99375.09;;;21.70;65.35
25650;BME280;13505;45.196;5.696;2023-07-13T05:21:10;99377.00;;;21.58;65.48
25650;BME280;13505;45.196;5.696;2023-07-13T05:26:01;99381.16;;;21.72;66.04
25650;BME280;13505;45.196;5.696;2023-07-13T05:30:52;99388.28;;;21.52;66.53
25650;BME280;13505;45.196;5.696;2023-07-13T05:35:44;99391.91;;;21.41;66.97
25650;BME280;13505;45.196;5.696;2023-07-13T05:40:34;99399.78;;;21.32;68.42
25650;BME280;13505;45.196;5.696;2023-07-13T05:45:24;99399.66;;;21.03;68.74
25650;BME280;13505;45.196;5.696;2023-07-13T05:50:16;99403.66;;;21.18;69.14
25650;BME280;13505;45.196;5.696;2023-07-13T05:55:06;99409.00;;;21.09;70.30
25650;BME280;13505;45.196;5.696;2023-07-13T05:59:57;99407.09;;;20.99;70.97
25650;BME280;13505;45.196;5.696;2023-07-13T06:04:47;99408.34;;;20.95;72.47
25650;BME280;13505;45.196;5.696;2023-07-13T06:09:37;99424.88;;;21.00;71.71
25650;BME280;13505;45.196;5.696;2023-07-13T06:14:28;99431.34;;;20.76;73.76
25650;BME280;13505;45.196;5.696;2023-07-13T06:19:19;99434.22;;;21.06;72.80
25650;BME280;13505;45.196;5.696;2023-07-13T06:24:09;99441.47;;;20.73;73.75
25650;BME280;13505;45.196;5.696;2023-07-13T06:28:59;99435.44;;;20.59;74.07
25650;BME280;13505;45.196;5.696;2023-07-13T06:33:49;99441.41;;;20.63;73.12
25650;BME280;13505;45.196;5.696;2023-07-13T06:38:40;99442.72;;;20.90;72.27
25650;BME280;13505;45.196;5.696;2023-07-13T06:43:30;99453.97;;;21.26;70.80
25650;BME280;13505;45.196;5.696;2023-07-13T06:48:22;99451.72;;;21.53;69.92
25650;BME280;13505;45.196;5.696;2023-07-13T06:53:13;99458.53;;;21.36;69.92
25650;BME280;13505;45.196;5.696;2023-07-13T06:58:03;99451.31;;;21.57;70.01
25650;BME280;13505;45.196;5.696;2023-07-13T07:02:53;99446.47;;;21.92;67.30
25650;BME280;13505;45.196;5.696;2023-07-13T07:07:44;99444.03;;;22.40;65.89
25650;BME280;13505;45.196;5.696;2023-07-13T07:12:34;99437.69;;;22.70;64.20
25650;BME280;13505;45.196;5.696;2023-07-13T07:17:24;99447.00;;;22.96;63.28
25650;BME280;13505;45.196;5.696;2023-07-13T07:22:16;99440.78;;;22.95;63.78
25650;BME280;13505;45.196;5.696;2023-07-13T07:27:06;99445.69;;;23.10;63.38
25650;BME280;13505;45.196;5.696;2023-07-13T07:31:58;99453.44;;;23.42;62.51
25650;BME280;13505;45.196;5.696;2023-07-13T07:36:49;99459.09;;;23.20;62.37
25650;BME280;13505;45.196;5.696;2023-07-13T07:41:39;99454.94;;;23.55;62.14
25650;BME280;13505;45.196;5.696;2023-07-13T07:46:29;99463.56;;;23.59;61.79
25650;BME280;13505;45.196;5.696;2023-07-13T07:51:20;99464.72;;;23.46;62.02
25650;BME280;13505;45.196;5.696;2023-07-13T07:56:10;99461.47;;;23.52;62.25
25650;BME280;13505;45.196;5.696;2023-07-13T08:01:07;99459.34;;;23.46;62.14
25650;BME280;13505;45.196;5.696;2023-07-13T08:05:57;99456.06;;;23.52;62.49
25650;BME280;13505;45.196;5.696;2023-07-13T08:10:47;99453.81;;;24.14;60.89
25650;BME280;13505;45.196;5.696;2023-07-13T08:15:38;99449.34;;;25.21;57.29
25650;BME280;13505;45.196;5.696;2023-07-13T08:20:28;99442.28;;;25.82;55.54
25650;BME280;13505;45.196;5.696;2023-07-13T08:25:18;99438.63;;;25.56;54.11
25650;BME280;13505;45.196;5.696;2023-07-13T08:30:10;99432.59;;;26.30;52.88
25650;BME280;13505;45.196;5.696;2023-07-13T08:35:00;99432.19;;;26.09;53.61
25650;BME280;13505;45.196;5.696;2023-07-13T08:39:51;99430.19;;;25.06;54.50
25650;BME280;13505;45.196;5.696;2023-07-13T08:44:59;99427.91;;;26.57;51.61
25650;BME280;13505;45.196;5.696;2023-07-13T08:49:53;99428.91;;;27.14;49.32
25650;BME280;13505;45.196;5.696;2023-07-13T08:54:49;99424.50;;;26.64;50.93
25650;BME280;13505;45.196;5.696;2023-07-13T08:59:41;99434.31;;;27.06;49.15
25650;BME280;13505;45.196;5.696;2023-07-13T09:04:46;99432.16;;;26.93;49.75
25650;BME280;13505;45.196;5.696;2023-07-13T09:10:02;99433.94;;;27.17;48.85
25650;BME280;13505;45.196;5.696;2023-07-13T09:14:56;99425.03;;;26.92;50.14
25650;BME280;13505;45.196;5.696;2023-07-13T09:19:54;99430.59;;;26.66;50.28
25650;BME280;13505;45.196;5.696;2023-07-13T09:29:42;99436.78;;;27.41;46.73
25650;BME280;13505;45.196;5.696;2023-07-13T09:34:35;99430.19;;;27.35;47.78
25650;BME280;13505;45.196;5.696;2023-07-13T09:39:38;99449.03;;;27.77;45.80
25650;BME280;13505;45.196;5.696;2023-07-13T09:44:30;99449.16;;;27.35;46.82
25650;BME280;13505;45.196;5.696;2023-07-13T09:49:35;99461.66;;;27.44;46.80
25650;BME280;13505;45.196;5.696;2023-07-13T09:54:26;99454.03;;;28.28;45.32
25650;BME280;13505;45.196;5.696;2023-07-13T09:59:21;99457.22;;;28.78;44.09
25650;BME280;13505;45.196;5.696;2023-07-13T10:04:13;99452.78;;;29.39;42.41
25650;BME280;13505;45.196;5.696;2023-07-13T10:09:07;99443.66;;;29.92;40.57
25650;BME280;13505;45.196;5.696;2023-07-13T10:14:07;99458.16;;;30.14;39.18
25650;BME280;13505;45.196;5.696;2023-07-13T10:19:42;99458.09;;;29.92;39.63
25650;BME280;13505;45.196;5.696;2023-07-13T10:24:20;99445.44;;;30.36;38.84
25650;BME280;13505;45.196;5.696;2023-07-13T10:29:14;99449.19;;;30.35;37.97
25650;BME280;13505;45.196;5.696;2023-07-13T10:34:09;99456.63;;;30.27;38.16
25650;BME280;13505;45.196;5.696;2023-07-13T10:39:03;99453.66;;;30.43;37.23
25650;BME280;13505;45.196;5.696;2023-07-13T10:43:55;99451.50;;;30.17;39.34
25650;BME280;13505;45.196;5.696;2023-07-13T10:48:51;99459.63;;;30.54;36.55
25650;BME280;13505;45.196;5.696;2023-07-13T10:53:42;99439.28;;;30.93;35.27
25650;BME280;13505;45.196;5.696;2023-07-13T10:58:35;99435.78;;;31.06;35.14
25650;BME280;13505;45.196;5.696;2023-07-13T11:03:31;99417.09;;;30.96;36.39
25650;BME280;13505;45.196;5.696;2023-07-13T11:08:34;99412.50;;;31.25;35.71
25650;BME280;13505;45.196;5.696;2023-07-13T11:18:35;99423.97;;;31.56;35.24
25650;BME280;13505;45.196;5.696;2023-07-13T11:23:30;99422.00;;;31.43;35.73
25650;BME280;13505;45.196;5.696;2023-07-13T11:28:23;99420.06;;;31.79;34.95
25650;BME280;13505;45.196;5.696;2023-07-13T11:33:27;99413.97;;;31.77;33.60
25650;BME280;13505;45.196;5.696;2023-07-13T11:38:21;99400.22;;;31.85;35.45
25650;BME280;13505;45.196;5.696;2023-07-13T11:43:15;99393.28;;;31.82;32.94
25650;BME280;13505;45.196;5.696;2023-07-13T11:48:18;99385.72;;;31.84;33.48
25650;BME280;13505;45.196;5.696;2023-07-13T11:53:09;99379.91;;;32.01;32.82
25650;BME280;13505;45.196;5.696;2023-07-13T11:58:01;99379.72;;;32.09;32.79
25650;BME280;13505;45.196;5.696;2023-07-13T12:02:56;99385.81;;;32.32;32.54
25650;BME280;13505;45.196;5.696;2023-07-13T12:07:47;99376.75;;;32.04;32.85
25650;BME280;13505;45.196;5.696;2023-07-13T12:12:46;99376.19;;;31.60;33.02
25650;BME280;13505;45.196;5.696;2023-07-13T12:17:38;99359.00;;;30.89;33.39
25650;BME280;13505;45.196;5.696;2023-07-13T12:22:28;99351.16;;;31.92;32.50
25650;BME280;13505;45.196;5.696;2023-07-13T12:27:20;99354.50;;;32.00;32.01
25650;BME280;13505;45.196;5.696;2023-07-13T12:32:17;99350.34;;;32.11;32.44
25650;BME280;13505;45.196;5.696;2023-07-13T12:37:11;99350.16;;;32.20;31.12
25650;BME280;13505;45.196;5.696;2023-07-13T12:47:20;99356.06;;;32.50;31.07
25650;BME280;13505;45.196;5.696;2023-07-13T12:52:21;99353.13;;;32.58;30.76
25650;BME280;13505;45.196;5.696;2023-07-13T12:57:16;99340.31;;;32.46;31.84
25650;BME280;13505;45.196;5.696;2023-07-13T13:02:33;99354.38;;;32.42;30.27
25650;BME280;13505;45.196;5.696;2023-07-13T13:07:25;99349.53;;;32.51;30.56
25650;BME280;13505;45.196;5.696;2023-07-13T13:12:17;99348.47;;;32.66;30.33
25650;BME280;13505;45.196;5.696;2023-07-13T13:17:19;99340.72;;;32.63;30.32
25650;BME280;13505;45.196;5.696;2023-07-13T13:22:10;99348.28;;;32.54;30.16
25650;BME280;13505;45.196;5.696;2023-07-13T13:27:01;99345.34;;;32.69;29.85
25650;BME280;13505;45.196;5.696;2023-07-13T13:31:53;99333.38;;;32.50;29.59
25650;BME280;13505;45.196;5.696;2023-07-13T13:36:44;99345.34;;;32.55;28.67
25650;BME280;13505;45.196;5.696;2023-07-13T13:41:36;99344.28;;;32.43;29.96
25650;BME280;13505;45.196;5.696;2023-07-13T13:46:26;99341.94;;;32.13;29.20
25650;BME280;13505;45.196;5.696;2023-07-13T13:51:21;99334.41;;;32.22;29.44
25650;BME280;13505;45.196;5.696;2023-07-13T13:56:13;99324.44;;;31.73;29.58
25650;BME280;13505;45.196;5.696;2023-07-13T14:01:03;99324.94;;;31.91;29.89
25650;BME280;13505;45.196;5.696;2023-07-13T14:05:58;99327.28;;;32.14;30.73
25650;BME280;13505;45.196;5.696;2023-07-13T14:10:54;99328.47;;;31.84;30.17
25650;BME280;13505;45.196;5.696;2023-07-13T14:15:46;99331.88;;;32.07;29.17
25650;BME280;13505;45.196;5.696;2023-07-13T14:20:36;99326.84;;;32.10;29.94
25650;BME280;13505;45.196;5.696;2023-07-13T14:25:27;99334.34;;;31.88;29.81
25650;BME280;13505;45.196;5.696;2023-07-13T14:30:21;99334.53;;;31.24;29.72
25650;BME280;13505;45.196;5.696;2023-07-13T14:35:12;99318.75;;;31.75;30.31
25650;BME280;13505;45.196;5.696;2023-07-13T14:40:12;99322.78;;;31.79;30.83
25650;BME280;13505;45.196;5.696;2023-07-13T14:45:03;99316.00;;;31.61;30.63
25650;BME280;13505;45.196;5.696;2023-07-13T14:49:53;99314.34;;;31.60;29.71
25650;BME280;13505;45.196;5.696;2023-07-13T14:54:44;99316.59;;;31.50;30.65
25650;BME280;13505;45.196;5.696;2023-07-13T14:59:35;99328.34;;;31.09;31.36
25650;BME280;13505;45.196;5.696;2023-07-13T15:04:26;99328.41;;;31.22;30.47
25650;BME280;13505;45.196;5.696;2023-07-13T15:09:16;99313.78;;;31.23;30.27
25650;BME280;13505;45.196;5.696;2023-07-13T15:14:06;99321.13;;;31.23;30.16
25650;BME280;13505;45.196;5.696;2023-07-13T15:18:57;99314.03;;;30.93;30.93
25650;BME280;13505;45.196;5.696;2023-07-13T15:23:49;99313.38;;;30.62;30.67
25650;BME280;13505;45.196;5.696;2023-07-13T15:28:42;99304.13;;;30.85;31.28
25650;BME280;13505;45.196;5.696;2023-07-13T15:33:33;99309.25;;;31.02;30.56
25650;BME280;13505;45.196;5.696;2023-07-13T15:38:30;99318.25;;;30.67;30.62
25650;BME280;13505;45.196;5.696;2023-07-13T15:43:22;99312.25;;;30.78;30.53
25650;BME280;13505;45.196;5.696;2023-07-13T15:48:16;99314.69;;;30.38;30.02
25650;BME280;13505;45.196;5.696;2023-07-13T15:53:09;99311.84;;;30.53;30.75
25650;BME280;13505;45.196;5.696;2023-07-13T15:58:00;99299.72;;;30.27;29.71
25650;BME280;13505;45.196;5.696;2023-07-13T16:02:51;99293.25;;;30.06;30.39
25650;BME280;13505;45.196;5.696;2023-07-13T16:07:46;99302.53;;;30.12;30.55
25650;BME280;13505;45.196;5.696;2023-07-13T16:12:37;99298.34;;;29.94;30.53
25650;BME280;13505;45.196;5.696;2023-07-13T16:17:27;99304.50;;;29.82;31.42
25650;BME280;13505;45.196;5.696;2023-07-13T16:22:19;99307.06;;;29.90;31.39
25650;BME280;13505;45.196;5.696;2023-07-13T16:27:11;99304.44;;;29.75;32.02
25650;BME280;13505;45.196;5.696;2023-07-13T16:32:06;99308.31;;;29.65;31.45
25650;BME280;13505;45.196;5.696;2023-07-13T16:36:57;99308.16;;;29.37;31.59
25650;BME280;13505;45.196;5.696;2023-07-13T16:41:48;99312.94;;;29.50;31.88
25650;BME280;13505;45.196;5.696;2023-07-13T16:46:38;99313.63;;;29.22;32.43
25650;BME280;13505;45.196;5.696;2023-07-13T16:51:29;99317.84;;;28.94;32.01
25650;BME280;13505;45.196;5.696;2023-07-13T16:56:19;99315.97;;;28.95;31.71
25650;BME280;13505;45.196;5.696;2023-07-13T17:01:10;99324.63;;;28.75;31.46
25650;BME280;13505;45.196;5.696;2023-07-13T17:06:19;99317.13;;;28.77;32.02
25650;BME280;13505;45.196;5.696;2023-07-13T17:11:10;99320.78;;;28.69;31.67
25650;BME280;13505;45.196;5.696;2023-07-13T17:16:00;99320.84;;;28.46;33.27
25650;BME280;13505;45.196;5.696;2023-07-13T17:20:51;99314.81;;;28.21;33.49
25650;BME280;13505;45.196;5.696;2023-07-13T17:25:42;99299.22;;;28.14;33.86
25650;BME280;13505;45.196;5.696;2023-07-13T17:30:33;99297.78;;;28.04;32.50
25650;BME280;13505;45.196;5.696;2023-07-13T17:35:26;99293.31;;;27.88;33.46
25650;BME280;13505;45.196;5.696;2023-07-13T17:40:17;99298.81;;;27.79;34.43
25650;BME280;13505;45.196;5.696;2023-07-13T17:45:08;99292.69;;;27.62;33.75
25650;BME280;13505;45.196;5.696;2023-07-13T17:50:00;99302.53;;;27.47;34.88
25650;BME280;13505;45.196;5.696;2023-07-13T17:54:53;99299.06;;;27.29;34.95
25650;BME280;13505;45.196;5.696;2023-07-13T17:59:43;99297.91;;;27.24;33.73
25650;BME280;13505;45.196;5.696;2023-07-13T18:04:34;99293.88;;;27.20;33.74
25650;BME280;13505;45.196;5.696;2023-07-13T18:09:27;99294.72;;;27.20;33.78
25650;BME280;13505;45.196;5.696;2023-07-13T18:14:19;99295.31;;;26.99;34.91
25650;BME280;13505;45.196;5.696;2023-07-13T18:19:36;99289.72;;;26.92;34.95
25650;BME280;13505;45.196;5.696;2023-07-13T18:24:27;99279.13;;;26.66;35.48
25650;BME280;13505;45.196;5.696;2023-07-13T18:29:18;99281.84;;;26.66;36.05
25650;BME280;13505;45.196;5.696;2023-07-13T18:34:09;99279.34;;;26.47;35.89
25650;BME280;13505;45.196;5.696;2023-07-13T18:39:01;99278.34;;;26.40;36.06
25650;BME280;13505;45.196;5.696;2023-07-13T18:43:52;99288.00;;;26.26;35.73
25650;BME280;13505;45.196;5.696;2023-07-13T18:48:43;99286.81;;;26.21;35.58
25650;BME280;13505;45.196;5.696;2023-07-13T18:53:34;99290.50;;;26.11;36.35
25650;BME280;13505;45.196;5.696;2023-07-13T18:58:24;99291.16;;;25.97;36.23
25650;BME280;13505;45.196;5.696;2023-07-13T19:03:18;99294.38;;;25.92;37.63
25650;BME280;13505;45.196;5.696;2023-07-13T19:08:14;99287.75;;;25.70;37.07
25650;BME280;13505;45.196;5.696;2023-07-13T19:13:09;99292.13;;;25.62;37.44
25650;BME280;13505;45.196;5.696;2023-07-13T19:18:04;99288.69;;;25.44;37.80
25650;BME280;13505;45.196;5.696;2023-07-13T19:23:04;99288.25;;;25.22;38.54
25650;BME280;13505;45.196;5.696;2023-07-13T19:28:02;99291.44;;;25.09;37.33
25650;BME280;13505;45.196;5.696;2023-07-13T19:32:53;99293.34;;;25.25;37.44
25650;BME280;13505;45.196;5.696;2023-07-13T19:37:43;99300.84;;;25.05;38.42
25650;BME280;13505;45.196;5.696;2023-07-13T19:42:34;99303.53;;;25.05;39.39
25650;BME280;13505;45.196;5.696;2023-07-13T19:47:25;99301.03;;;25.03;39.79
25650;BME280;13505;45.196;5.696;2023-07-13T19:52:21;99321.88;;;24.93;39.64
25650;BME280;13505;45.196;5.696;2023-07-13T19:57:18;99327.47;;;24.73;39.68
25650;BME280;13505;45.196;5.696;2023-07-13T20:02:08;99335.22;;;24.76;39.85
25650;BME280;13505;45.196;5.696;2023-07-13T20:06:59;99348.63;;;24.60;39.37
25650;BME280;13505;45.196;5.696;2023-07-13T20:11:50;99340.03;;;24.38;38.82
25650;BME280;13505;45.196;5.696;2023-07-13T20:16:41;99359.00;;;24.55;40.05
25650;BME280;13505;45.196;5.696;2023-07-13T20:21:32;99362.03;;;24.51;38.96
25650;BME280;13505;45.196;5.696;2023-07-13T20:26:22;99365.50;;;24.44;39.25
25650;BME280;13505;45.196;5.696;2023-07-13T20:31:13;99374.19;;;24.37;38.98
25650;BME280;13505;45.196;5.696;2023-07-13T20:36:05;99379.59;;;24.37;39.62
25650;BME280;13505;45.196;5.696;2023-07-13T20:40:59;99376.13;;;24.27;40.86
25650;BME280;13505;45.196;5.696;2023-07-13T20:45:58;99372.22;;;24.21;40.55
25650;BME280;13505;45.196;5.696;2023-07-13T20:50:50;99371.44;;;24.11;40.10
25650;BME280;13505;45.196;5.696;2023-07-13T20:55:41;99369.75;;;24.10;41.27
25650;BME280;13505;45.196;5.696;2023-07-13T21:00:31;99367.94;;;23.82;40.05
25650;BME280;13505;45.196;5.696;2023-07-13T21:05:24;99369.53;;;23.93;40.54
25650;BME280;13505;45.196;5.696;2023-07-13T21:15:10;99378.38;;;23.86;41.20
25650;BME280;13505;45.196;5.696;2023-07-13T21:20:01;99380.25;;;23.85;41.33
25650;BME280;13505;45.196;5.696;2023-07-13T21:24:53;99371.44;;;23.83;41.67
25650;BME280;13505;45.196;5.696;2023-07-13T21:29:44;99368.53;;;23.76;41.86
25650;BME280;13505;45.196;5.696;2023-07-13T21:34:34;99372.28;;;23.65;43.31
25650;BME280;13505;45.196;5.696;2023-07-13T21:39:24;99371.34;;;23.28;44.43
25650;BME280;13505;45.196;5.696;2023-07-13T21:49:13;99378.41;;;23.20;44.73
25650;BME280;13505;45.196;5.696;2023-07-13T21:54:17;99379.81;;;23.24;44.76
25650;BME280;13505;45.196;5.696;2023-07-13T21:59:15;99373.06;;;23.10;45.10
